createdAt,value
2024-02-10T00:00:50.981Z,10.85
2024-02-10T00:03:19.166Z,10.43
2024-02-10T00:05:47.373Z,11.18
2024-02-10T00:08:15.588Z,11.85
2024-02-10T00:10:43.776Z,10.45
2024-02-10T00:13:13.709Z,7.88
2024-02-10T00:15:42.133Z,8.40
2024-02-10T00:18:11.544Z,10.40
2024-02-10T00:20:39.866Z,9.27
2024-02-10T00:23:09.605Z,5.93
2024-02-10T00:25:39.395Z,6.60
2024-02-10T00:28:10.363Z,6.47
2024-02-10T00:30:41.042Z,6.68
2024-02-10T00:33:10.106Z,6.85
2024-02-10T00:35:38.391Z,6.82
2024-02-10T00:38:06.565Z,7.82
2024-02-10T00:40:34.946Z,6.97
2024-02-10T00:43:05.543Z,7.20
2024-02-10T00:45:33.896Z,6.93
2024-02-10T00:48:03.754Z,6.82
2024-02-10T00:50:32.368Z,7.00
2024-02-10T00:53:03.941Z,7.03
2024-02-10T00:55:32.736Z,7.88
2024-02-10T00:58:03.815Z,8.52
2024-02-10T01:00:33.101Z,7.85
2024-02-10T01:03:01.885Z,8.10
2024-02-10T01:05:32.199Z,6.75
2024-02-10T01:08:01.757Z,7.05
2024-02-10T01:10:32.203Z,6.47
2024-02-10T01:13:02.880Z,6.93
2024-02-10T01:15:34.542Z,6.43
2024-02-10T01:18:04.371Z,6.90
2024-02-10T01:20:36.728Z,6.00
2024-02-10T01:23:05.411Z,5.90
2024-02-10T01:25:33.606Z,6.50
2024-02-10T01:28:02.964Z,5.88
2024-02-10T01:30:31.231Z,6.45
2024-02-10T01:33:00.324Z,6.25
2024-02-10T01:35:28.873Z,6.57
2024-02-10T01:38:01.035Z,6.53
2024-02-10T01:40:29.478Z,6.82
2024-02-10T01:42:57.702Z,7.55
2024-02-10T01:45:26.127Z,6.60
2024-02-10T01:47:54.394Z,7.57
2024-02-10T01:50:22.938Z,8.00
2024-02-10T01:52:50.390Z,7.68
2024-02-10T01:55:20.944Z,8.45
2024-02-10T01:57:55.506Z,7.40
2024-02-10T02:03:01.036Z,7.10
2024-02-10T02:05:30.295Z,7.32
2024-02-10T02:07:58.949Z,7.20
2024-02-10T02:10:28.539Z,7.38
2024-02-10T02:12:58.916Z,6.88
2024-02-10T02:15:28.635Z,8.27
2024-02-10T02:17:58.948Z,6.88
2024-02-10T02:20:29.516Z,7.95
2024-02-10T02:22:58.967Z,7.63
2024-02-10T02:25:27.004Z,7.25
2024-02-10T02:27:54.984Z,7.97
2024-02-10T02:30:23.058Z,8.63
2024-02-10T02:32:52.018Z,8.27
2024-02-10T02:35:20.177Z,7.47
2024-02-10T02:37:48.452Z,7.18
2024-02-10T02:40:18.465Z,8.07
2024-02-10T02:42:47.454Z,7.07
2024-02-10T02:45:15.755Z,7.60
2024-02-10T02:47:43.949Z,7.68
2024-02-10T02:50:16.548Z,6.97
2024-02-10T02:52:45.763Z,7.80
2024-02-10T02:55:13.970Z,6.88
2024-02-10T02:57:44.251Z,8.23
2024-02-10T03:00:14.167Z,7.13
2024-02-10T03:02:44.064Z,7.57
2024-02-10T03:05:13.593Z,7.93
2024-02-10T03:07:44.532Z,7.32
2024-02-10T03:10:13.034Z,6.78
2024-02-10T03:12:42.858Z,6.72
2024-02-10T03:15:15.786Z,7.85
2024-02-10T03:17:47.769Z,6.28
2024-02-10T03:20:22.639Z,7.28
2024-02-10T03:22:59.735Z,7.20
2024-02-10T03:25:29.792Z,6.78
2024-02-10T03:27:58.263Z,7.20
2024-02-10T03:30:27.704Z,6.95
2024-02-10T03:32:56.959Z,7.32
2024-02-10T03:35:28.039Z,6.82
2024-02-10T03:37:56.424Z,6.93
2024-02-10T03:40:24.766Z,7.10
2024-02-10T03:42:52.858Z,6.97
2024-02-10T03:45:20.956Z,7.38
2024-02-10T03:47:51.979Z,6.10
2024-02-10T03:50:20.539Z,6.70
2024-02-10T03:52:49.834Z,6.20
2024-02-10T03:55:18.591Z,5.95
2024-02-10T03:57:46.844Z,6.53
2024-02-10T04:00:22.154Z,6.40
2024-02-10T04:02:50.706Z,6.25
2024-02-10T04:05:19.038Z,6.72
2024-02-10T04:07:51.122Z,6.45
2024-02-10T04:10:20.116Z,6.57
2024-02-10T04:12:48.702Z,6.70
2024-02-10T04:15:16.966Z,6.82
2024-02-10T04:17:50.292Z,6.43
2024-02-10T04:20:21.198Z,7.35
2024-02-10T04:25:17.486Z,6.25
2024-02-10T04:27:45.697Z,6.20
2024-02-10T04:30:14.881Z,6.18
2024-02-10T04:32:43.985Z,6.13
2024-02-10T04:35:12.145Z,6.47
2024-02-10T04:37:50.358Z,5.97
2024-02-10T04:40:18.833Z,6.43
2024-02-10T04:42:47.306Z,6.15
2024-02-10T04:45:25.323Z,5.90
2024-02-10T04:47:54.034Z,6.05
2024-02-10T04:50:22.493Z,5.68
2024-02-10T04:52:52.265Z,5.68
2024-02-10T04:55:21.194Z,5.53
2024-02-10T04:57:49.580Z,5.43
2024-02-10T05:00:18.209Z,6.20
2024-02-10T05:02:46.774Z,5.65
2024-02-10T05:05:15.289Z,5.72
2024-02-10T05:07:44.542Z,6.45
2024-02-10T05:10:16.865Z,6.35
2024-02-10T05:12:46.178Z,5.55
2024-02-10T05:15:15.987Z,5.38
2024-02-10T05:17:44.085Z,5.80
2024-02-10T05:20:20.449Z,6.05
2024-02-10T05:22:49.727Z,5.50
2024-02-10T05:25:21.866Z,5.07
2024-02-10T05:27:50.883Z,5.70
2024-02-10T05:30:26.030Z,5.28
2024-02-10T05:32:58.032Z,5.00
2024-02-10T05:35:27.891Z,5.45
2024-02-10T05:37:57.971Z,4.85
2024-02-10T05:40:29.250Z,5.30
2024-02-10T05:43:00.538Z,5.63
2024-02-10T05:45:29.431Z,5.53
2024-02-10T05:47:57.581Z,5.07
2024-02-10T05:50:26.727Z,5.43
2024-02-10T05:52:59.295Z,5.55
2024-02-10T05:55:31.272Z,6.20
2024-02-10T05:58:03.270Z,5.80
2024-02-10T06:00:32.850Z,5.57
2024-02-10T06:03:01.570Z,5.05
2024-02-10T06:05:30.306Z,6.03
2024-02-10T06:07:59.157Z,6.28
2024-02-10T06:10:27.582Z,6.22
2024-02-10T06:12:57.115Z,5.88
2024-02-10T06:15:27.118Z,6.45
2024-02-10T06:17:57.789Z,7.53
2024-02-10T06:20:26.755Z,5.25
2024-02-10T06:22:56.645Z,6.47
2024-02-10T06:25:27.742Z,6.68
2024-02-10T06:28:00.964Z,6.05
2024-02-10T06:30:35.053Z,6.22
2024-02-10T06:33:05.987Z,6.28
2024-02-10T06:35:35.751Z,6.00
2024-02-10T06:38:04.861Z,7.50
2024-02-10T06:40:32.999Z,6.10
2024-02-10T06:43:04.026Z,6.60
2024-02-10T06:45:32.392Z,7.57
2024-02-10T06:48:00.580Z,6.78
2024-02-10T06:50:29.619Z,6.95
2024-02-10T06:53:01.542Z,6.97
2024-02-10T06:55:30.730Z,6.85
2024-02-10T06:57:59.059Z,7.25
2024-02-10T07:00:30.469Z,7.15
2024-02-10T07:02:59.030Z,7.78
2024-02-10T07:05:27.840Z,7.38
2024-02-10T07:07:57.207Z,8.52
2024-02-10T07:10:26.226Z,7.38
2024-02-10T07:12:58.595Z,8.02
2024-02-10T07:15:31.740Z,7.28
2024-02-10T07:18:03.635Z,8.50
2024-02-10T07:20:33.670Z,6.25
2024-02-10T07:23:05.490Z,6.50
2024-02-10T07:25:37.082Z,7.07
2024-02-10T07:28:06.685Z,7.72
2024-02-10T07:30:36.867Z,6.65
2024-02-10T07:33:11.195Z,4.78
2024-02-10T07:35:41.392Z,4.82
2024-02-10T07:38:10.689Z,6.95
2024-02-10T07:40:39.733Z,6.35
2024-02-10T07:43:13.970Z,5.65
2024-02-10T07:45:43.746Z,6.68
2024-02-10T07:48:12.991Z,6.07
2024-02-10T07:50:43.196Z,6.35
2024-02-10T07:53:15.379Z,5.75
2024-02-10T07:55:46.144Z,5.43
2024-02-10T07:58:17.205Z,5.93
2024-02-10T08:00:48.383Z,7.03
2024-02-10T08:03:16.739Z,6.60
2024-02-10T08:05:44.933Z,6.40
2024-02-10T08:08:13.231Z,7.05
2024-02-10T08:10:41.435Z,7.25
2024-02-10T08:13:10.075Z,7.68
2024-02-10T08:15:38.528Z,6.85
2024-02-10T08:18:10.139Z,8.52
2024-02-10T08:20:41.726Z,7.75
2024-02-10T08:23:13.777Z,9.27
2024-02-10T08:25:43.168Z,7.38
2024-02-10T08:28:12.499Z,7.60
2024-02-10T08:30:41.905Z,9.27
2024-02-10T08:33:11.368Z,7.93
2024-02-10T08:35:40.937Z,7.60
2024-02-10T08:38:10.790Z,7.88
2024-02-10T08:40:38.803Z,8.05
2024-02-10T08:43:09.899Z,6.50
2024-02-10T08:45:40.301Z,8.05
2024-02-10T08:48:11.768Z,8.00
2024-02-10T08:50:42.385Z,7.03
2024-02-10T08:53:10.911Z,7.65
2024-02-10T08:55:39.034Z,8.35
2024-02-10T08:58:07.423Z,7.68
2024-02-10T09:00:36.314Z,8.25
2024-02-10T09:03:04.858Z,8.18
2024-02-10T09:05:32.979Z,8.48
2024-02-10T09:08:02.610Z,8.23
2024-02-10T09:10:30.770Z,9.02
2024-02-10T09:13:00.960Z,9.25
2024-02-10T09:15:30.385Z,7.78
2024-02-10T09:17:58.636Z,8.13
2024-02-10T09:20:32.530Z,7.75
2024-02-10T09:23:04.307Z,8.50
2024-02-10T09:25:38.214Z,7.05
2024-02-10T09:28:07.353Z,7.05
2024-02-10T09:30:37.055Z,5.78
2024-02-10T09:33:09.583Z,6.85
2024-02-10T09:35:41.397Z,7.50
2024-02-10T09:38:14.677Z,6.57
2024-02-10T09:40:44.608Z,7.93
2024-02-10T09:43:15.929Z,7.60
2024-02-10T09:45:46.442Z,7.95
2024-02-10T09:48:20.073Z,7.35
2024-02-10T09:50:48.740Z,7.65
2024-02-10T09:53:18.363Z,7.28
2024-02-10T09:55:47.422Z,7.28
2024-02-10T09:58:18.334Z,7.07
2024-02-10T10:00:49.382Z,6.45
2024-02-10T10:05:47.432Z,6.88
2024-02-10T10:08:23.145Z,7.55
2024-02-10T10:10:52.081Z,6.40
2024-02-10T10:13:20.232Z,6.38
2024-02-10T10:15:48.417Z,6.47
2024-02-10T10:18:17.531Z,6.40
2024-02-10T10:20:47.137Z,6.75
2024-02-10T10:23:15.878Z,6.28
2024-02-10T10:25:47.834Z,6.63
2024-02-10T10:28:18.014Z,6.22
2024-02-10T10:30:49.856Z,6.50
2024-02-10T10:33:22.635Z,6.85
2024-02-10T10:35:51.749Z,5.85
2024-02-10T10:38:23.469Z,3.55
2024-02-10T10:40:54.505Z,5.07
2024-02-10T10:43:23.903Z,4.78
2024-02-10T10:45:52.430Z,3.45
2024-02-10T10:48:20.973Z,3.13
2024-02-10T10:50:57.506Z,3.25
2024-02-10T10:53:29.204Z,3.08
2024-02-10T10:56:02.932Z,2.00
2024-02-10T10:58:40.622Z,3.15
2024-02-10T11:01:12.835Z,2.53
2024-02-10T11:03:43.699Z,3.20
2024-02-10T11:06:13.412Z,2.30
2024-02-10T11:08:46.704Z,2.42
2024-02-10T11:11:16.949Z,2.30
2024-02-10T11:13:45.064Z,2.97
2024-02-10T11:16:15.257Z,2.70
2024-02-10T11:18:46.351Z,2.53
2024-02-10T11:21:20.411Z,1.40
2024-02-10T11:24:08.831Z,1.85
2024-02-10T11:26:41.225Z,1.90
2024-02-10T11:29:10.738Z,1.35
2024-02-10T11:31:41.749Z,1.83
2024-02-10T11:34:15.884Z,1.98
2024-02-10T11:36:50.235Z,2.38
2024-02-10T11:39:20.218Z,2.40
2024-02-10T11:41:50.104Z,2.40
2024-02-10T11:44:18.135Z,2.05
2024-02-10T11:46:47.103Z,2.55
2024-02-10T11:49:15.371Z,2.42
2024-02-10T11:51:43.581Z,1.98
2024-02-10T11:54:11.824Z,2.13
2024-02-10T11:56:39.909Z,2.40
2024-02-10T11:59:10.143Z,2.30
2024-02-10T12:01:39.043Z,2.67
2024-02-10T12:04:07.716Z,1.90
2024-02-10T12:06:38.981Z,2.28
2024-02-10T12:09:11.323Z,2.15
2024-02-10T12:11:40.245Z,2.22
2024-02-10T12:14:15.915Z,2.35
2024-02-10T12:16:46.156Z,2.40
2024-02-10T12:19:16.105Z,3.03
2024-02-10T12:21:44.167Z,2.33
2024-02-10T12:24:13.198Z,2.38
2024-02-10T12:26:41.332Z,2.70
2024-02-10T12:29:14.104Z,2.40
2024-02-10T12:31:43.443Z,2.88
2024-02-10T12:34:11.769Z,2.63
2024-02-10T12:36:40.276Z,2.53
2024-02-10T12:39:11.194Z,2.63
2024-02-10T12:41:39.773Z,3.35
2024-02-10T12:44:08.029Z,3.40
2024-02-10T12:46:37.513Z,3.22
2024-02-10T12:49:06.041Z,3.30
2024-02-10T12:51:35.070Z,2.17
2024-02-10T12:54:03.499Z,1.92
2024-02-10T12:56:31.731Z,1.55
2024-02-10T12:59:00.059Z,1.70
2024-02-10T13:01:32.372Z,2.03
2024-02-10T13:04:03.899Z,1.92
2024-02-10T13:06:33.169Z,1.70
2024-02-10T13:09:01.339Z,1.20
2024-02-10T13:11:29.700Z,1.55
2024-02-10T13:13:58.079Z,1.58
2024-02-10T13:16:26.163Z,1.75
2024-02-10T13:18:54.293Z,1.52
2024-02-10T13:21:23.877Z,2.20
2024-02-10T13:23:51.952Z,1.60
2024-02-10T13:26:22.496Z,2.25
2024-02-10T13:28:53.537Z,1.92
2024-02-10T13:31:24.194Z,1.48
2024-02-10T13:33:53.412Z,1.73
2024-02-10T13:36:28.483Z,1.45
2024-02-10T13:39:13.984Z,2.22
2024-02-10T13:41:59.405Z,1.38
2024-02-10T13:44:44.639Z,1.92
2024-02-10T13:47:30.153Z,1.45
2024-02-10T13:50:16.167Z,1.10
2024-02-10T13:53:03.366Z,1.77
2024-02-10T13:55:49.875Z,1.42
2024-02-10T13:58:20.370Z,1.65
2024-02-10T14:00:49.027Z,1.55
2024-02-10T14:03:17.051Z,1.52
2024-02-10T14:06:07.937Z,1.60
2024-02-10T14:08:50.542Z,1.40
2024-02-10T14:11:32.749Z,1.30
2024-02-10T14:14:01.130Z,1.38
2024-02-10T14:16:32.049Z,1.40
2024-02-10T14:19:03.410Z,1.73
2024-02-10T14:21:34.498Z,1.67
2024-02-10T14:24:06.499Z,1.77
2024-02-10T14:26:43.476Z,1.30
2024-02-10T14:29:21.636Z,1.33
2024-02-10T14:31:52.556Z,1.95
2024-02-10T14:34:38.344Z,3.13
2024-02-10T14:37:28.049Z,1.48
2024-02-10T14:40:01.211Z,2.20
2024-02-10T14:42:29.893Z,1.80
2024-02-10T14:44:57.928Z,1.20
2024-02-10T14:47:26.836Z,2.05
2024-02-10T14:49:55.537Z,0.98
2024-02-10T14:52:24.787Z,1.30
2024-02-10T14:54:57.563Z,1.38
2024-02-10T14:57:27.306Z,1.27
2024-02-10T14:59:55.700Z,1.45
2024-02-10T15:02:27.171Z,1.45
2024-02-10T15:04:55.446Z,1.65
2024-02-10T15:07:25.622Z,2.13
2024-02-10T15:09:54.304Z,1.40
2024-02-10T15:12:22.550Z,1.65
2024-02-10T15:14:53.473Z,1.92
2024-02-10T15:17:22.025Z,1.50
2024-02-10T15:19:50.042Z,2.17
2024-02-10T15:22:20.539Z,1.52
2024-02-10T15:24:49.022Z,1.40
2024-02-10T15:27:17.216Z,2.00
2024-02-10T15:29:47.682Z,1.90
2024-02-10T15:32:17.256Z,1.30
2024-02-10T15:34:55.103Z,1.70
2024-02-10T15:37:30.032Z,1.67
2024-02-10T15:39:58.324Z,1.27
2024-02-10T15:42:28.340Z,1.50
2024-02-10T15:44:56.634Z,1.63
2024-02-10T15:47:26.197Z,1.23
2024-02-10T15:49:57.241Z,1.20
2024-02-10T15:52:26.917Z,1.30
2024-02-10T15:54:55.263Z,1.40
2024-02-10T15:57:23.305Z,1.05
2024-02-10T15:59:51.377Z,1.60
2024-02-10T16:02:20.719Z,1.92
2024-02-10T16:04:50.708Z,1.58
2024-02-10T16:07:24.301Z,1.42
2024-02-10T16:09:52.419Z,1.73
2024-02-10T16:12:21.323Z,1.38
2024-02-10T16:14:49.517Z,1.50
2024-02-10T16:17:18.113Z,1.55
2024-02-10T16:19:50.206Z,1.70
2024-02-10T16:22:19.875Z,1.40
2024-02-10T16:24:50.171Z,1.25
2024-02-10T16:27:23.300Z,1.30
2024-02-10T16:29:52.854Z,1.40
2024-02-10T16:32:20.981Z,1.33
2024-02-10T16:34:49.822Z,1.33
2024-02-10T16:37:19.418Z,1.60
2024-02-10T16:39:49.484Z,1.73
2024-02-10T16:42:17.732Z,1.48
2024-02-10T16:44:45.780Z,1.60
2024-02-10T16:47:13.891Z,1.70
2024-02-10T16:49:41.993Z,1.70
2024-02-10T16:52:10.233Z,2.03
2024-02-10T16:54:41.866Z,1.80
2024-02-10T16:57:11.514Z,1.83
2024-02-10T16:59:40.335Z,1.60
2024-02-10T17:02:09.892Z,1.52
2024-02-10T17:04:39.119Z,1.45
2024-02-10T17:07:08.665Z,2.17
2024-02-10T17:09:37.314Z,1.50
2024-02-10T17:12:07.430Z,1.30
2024-02-10T17:14:36.384Z,1.40
2024-02-10T17:17:04.471Z,1.30
2024-02-10T17:19:32.909Z,1.40
2024-02-10T17:22:01.076Z,1.15
2024-02-10T17:24:29.263Z,1.60
2024-02-10T17:26:57.950Z,1.38
2024-02-10T17:29:27.351Z,1.35
2024-02-10T17:31:55.599Z,1.45
2024-02-10T17:34:23.869Z,1.52
2024-02-10T17:36:51.912Z,1.42
2024-02-10T17:39:21.672Z,0.95
2024-02-10T17:41:49.774Z,2.50
2024-02-10T17:44:17.875Z,1.17
2024-02-10T17:46:50.552Z,1.65
2024-02-10T17:49:21.144Z,1.38
2024-02-10T17:54:21.384Z,1.63
2024-02-10T17:56:50.013Z,2.83
2024-02-10T17:59:20.051Z,1.30
2024-02-10T18:01:49.695Z,1.27
2024-02-10T18:04:18.116Z,2.53
2024-02-10T18:06:46.419Z,1.17
2024-02-10T18:09:14.718Z,1.15
2024-02-10T18:11:46.050Z,2.17
2024-02-10T18:14:17.792Z,1.42
2024-02-10T18:16:47.392Z,1.23
2024-02-10T18:19:18.096Z,1.42
2024-02-10T18:21:46.246Z,1.75
2024-02-10T18:24:17.331Z,1.42
2024-02-10T18:26:47.007Z,2.00
2024-02-10T18:29:17.831Z,1.33
2024-02-10T18:35:20.520Z,1.50
2024-02-10T18:41:29.448Z,1.00
2024-02-10T18:44:41.692Z,1.00
2024-02-10T18:47:42.380Z,1.10
2024-02-10T18:50:18.122Z,0.70
2024-02-10T18:52:47.579Z,0.85
2024-02-10T18:55:16.515Z,1.52
2024-02-10T18:57:44.606Z,2.35
2024-02-10T19:00:14.860Z,1.42
2024-02-10T19:02:43.081Z,1.52
2024-02-10T19:05:11.083Z,1.23
2024-02-10T19:07:40.836Z,1.20
2024-02-10T19:10:09.524Z,2.00
2024-02-10T19:12:38.095Z,1.33
2024-02-10T19:15:09.517Z,1.25
2024-02-10T19:17:38.619Z,1.23
2024-02-10T19:20:08.754Z,6.95
2024-02-10T19:22:37.305Z,1.48
2024-02-10T19:25:08.511Z,0.95
2024-02-10T19:27:39.980Z,1.30
2024-02-10T19:30:11.246Z,1.30
2024-02-10T19:32:40.331Z,1.10
2024-02-10T19:35:16.390Z,1.52
2024-02-10T19:37:47.594Z,1.40
2024-02-10T19:40:17.833Z,1.10
2024-02-10T19:42:47.026Z,1.05
2024-02-10T19:45:16.527Z,1.08
2024-02-10T19:47:48.094Z,1.42
2024-02-10T19:50:18.756Z,1.10
2024-02-10T19:52:48.046Z,1.10
2024-02-10T19:55:20.770Z,1.48
2024-02-10T19:57:49.188Z,1.17
2024-02-10T20:00:19.518Z,1.00
2024-02-10T20:02:47.627Z,1.40
2024-02-10T20:05:18.746Z,1.02
2024-02-10T20:07:48.210Z,1.17
2024-02-10T20:10:19.346Z,1.05
2024-02-10T20:12:48.387Z,1.38
2024-02-10T20:15:16.549Z,1.55
2024-02-10T20:17:48.574Z,1.13
2024-02-10T20:20:18.665Z,1.08
2024-02-10T20:22:47.590Z,0.93
2024-02-10T20:25:17.248Z,1.08
2024-02-10T20:27:46.316Z,1.13
2024-02-10T20:30:15.479Z,1.17
2024-02-10T20:32:43.611Z,1.20
2024-02-10T20:35:12.275Z,1.33
2024-02-10T20:37:41.104Z,1.50
2024-02-10T20:40:13.555Z,0.98
2024-02-10T20:42:43.544Z,1.33
2024-02-10T20:45:17.196Z,1.00
2024-02-10T20:47:45.583Z,1.08
2024-02-10T20:50:15.066Z,0.82
2024-02-10T20:52:43.335Z,1.20
2024-02-10T20:55:14.734Z,1.05
2024-02-10T20:57:46.573Z,0.77
2024-02-10T21:00:15.470Z,0.80
2024-02-10T21:02:43.651Z,0.88
2024-02-10T21:05:13.411Z,1.05
2024-02-10T21:07:41.273Z,1.23
2024-02-10T21:10:10.854Z,1.02
2024-02-10T21:12:41.421Z,1.10
2024-02-10T21:15:12.722Z,1.20
2024-02-10T21:17:41.290Z,1.98
2024-02-10T21:20:15.905Z,0.80
2024-02-10T21:22:47.730Z,1.20
2024-02-10T21:25:16.694Z,1.77
2024-02-10T21:27:45.013Z,1.13
2024-02-10T21:30:15.331Z,1.27
2024-02-10T21:32:44.198Z,1.13
2024-02-10T21:35:12.836Z,1.10
2024-02-10T21:37:41.867Z,1.05
2024-02-10T21:40:13.868Z,1.90
2024-02-10T21:42:42.375Z,1.20
2024-02-10T21:45:10.917Z,1.70
2024-02-10T21:47:41.186Z,1.15
2024-02-10T21:50:10.032Z,1.25
2024-02-10T21:52:38.652Z,1.30
2024-02-10T21:55:09.938Z,1.20
2024-02-10T21:57:40.226Z,1.20
2024-02-10T22:00:11.854Z,1.00
2024-02-10T22:02:41.753Z,0.95
2024-02-10T22:05:11.020Z,1.02
2024-02-10T22:07:40.741Z,1.00
2024-02-10T22:10:13.098Z,0.93
2024-02-10T22:12:41.935Z,1.10
2024-02-10T22:15:11.812Z,1.65
2024-02-10T22:17:41.253Z,1.05
2024-02-10T22:20:14.087Z,0.95
2024-02-10T22:22:42.309Z,1.20
2024-02-10T22:25:11.770Z,0.63
2024-02-10T22:27:41.478Z,1.80
2024-02-10T22:30:11.805Z,0.77
2024-02-10T22:32:41.264Z,0.63
2024-02-10T22:35:15.288Z,0.80
2024-02-10T22:37:44.855Z,0.98
2024-02-10T22:40:17.599Z,0.90
2024-02-10T22:42:46.963Z,0.75
2024-02-10T22:45:15.938Z,0.98
2024-02-10T22:47:46.472Z,1.10
2024-02-10T22:50:17.601Z,1.15
2024-02-10T22:52:45.852Z,1.15
2024-02-10T22:55:13.836Z,0.80
2024-02-10T22:57:42.623Z,1.08
2024-02-10T23:00:19.713Z,0.82
2024-02-10T23:02:50.508Z,1.20
2024-02-10T23:07:51.262Z,0.93
2024-02-10T23:10:19.339Z,0.60
2024-02-10T23:12:51.212Z,0.85
2024-02-10T23:15:23.109Z,0.90
2024-02-10T23:17:55.493Z,0.80
2024-02-10T23:20:26.964Z,0.73
2024-02-10T23:22:57.877Z,0.93
2024-02-10T23:25:26.194Z,0.75
2024-02-10T23:27:54.232Z,0.80
2024-02-10T23:30:22.312Z,0.63
2024-02-10T23:32:52.434Z,0.90
2024-02-10T23:35:23.184Z,0.75
2024-02-10T23:37:52.125Z,0.60
2024-02-10T23:40:20.221Z,0.68
2024-02-10T23:42:50.130Z,0.77
2024-02-10T23:45:18.372Z,0.77
2024-02-10T23:47:47.138Z,0.60
2024-02-10T23:50:20.766Z,0.85
2024-02-10T23:52:50.371Z,0.60
2024-02-10T23:55:18.539Z,0.98
2024-02-10T23:57:46.548Z,0.90
